sensor_id;sensor_type;location;lat;lon;timestamp;temperature;humidity
5394;DHT22;2720;52.396;10.064;2023-02-26T00:00:18;-1.50;99.90
5394;DHT22;2720;52.396;10.064;2023-02-26T00:02:46;-1.40;99.90
5394;DHT22;2720;52.396;10.064;2023-02-26T00:05:14;-1.30;99.90
5394;DHT22;2720;52.396;10.064;2023-02-26T00:07:42;-1.20;99.90
5394;DHT22;2720;52.396;10.064;2023-02-26T00:10:11;-1.20;99.90
5394;DHT22;2720;52.396;10.064;2023-02-26T00:12:38;-1.20;99.90
5394;DHT22;2720;52.396;10.064;2023-02-26T00:15:07;-1.10;99.90
5394;DHT22;2720;52.396;10.064;2023-02-26T00:17:43;-1.10;99.90
5394;DHT22;2720;52.396;10.064;2023-02-26T00:20:12;-1.20;99.90
5394;DHT22;2720;52.396;10.064;2023-02-26T00:22:42;-1.40;99.90
5394;DHT22;2720;52.396;10.064;2023-02-26T00:25:11;-1.50;99.90
5394;DHT22;2720;52.396;10.064;2023-02-26T00:27:39;-1.50;99.90
5394;DHT22;2720;52.396;10.064;2023-02-26T00:30:08;-1.60;99.90
5394;DHT22;2720;52.396;10.064;2023-02-26T00:32:36;-1.60;99.90
5394;DHT22;2720;52.396;10.064;2023-02-26T00:35:06;-1.60;99.90
5394;DHT22;2720;52.396;10.064;2023-02-26T00:37:57;-1.60;99.90
5394;DHT22;2720;52.396;10.064;2023-02-26T00:40:39;-1.50;99.90
5394;DHT22;2720;52.396;10.064;2023-02-26T00:43:09;-1.50;99.90
5394;DHT22;2720;52.396;10.064;2023-02-26T00:45:41;-1.40;99.90
5394;DHT22;2720;52.396;10.064;2023-02-26T00:48:21;-1.40;99.90
5394;DHT22;2720;52.396;10.064;2023-02-26T00:50:58;-1.30;99.90
5394;DHT22;2720;52.396;10.064;2023-02-26T00:53:32;-1.40;99.90
5394;DHT22;2720;52.396;10.064;2023-02-26T00:56:01;-1.30;99.90
5394;DHT22;2720;52.396;10.064;2023-02-26T00:58:28;-1.40;99.90
5394;DHT22;2720;52.396;10.064;2023-02-26T01:00:55;-1.50;99.90
5394;DHT22;2720;52.396;10.064;2023-02-26T01:03:22;-1.40;99.90
5394;DHT22;2720;52.396;10.064;2023-02-26T01:05:50;-1.40;99.90
5394;DHT22;2720;52.396;10.064;2023-02-26T01:08:22;-1.50;99.90
5394;DHT22;2720;52.396;10.064;2023-02-26T01:10:50;-1.50;99.90
5394;DHT22;2720;52.396;10.064;2023-02-26T01:13:18;-1.50;99.90
5394;DHT22;2720;52.396;10.064;2023-02-26T01:15:49;-1.50;99.90
5394;DHT22;2720;52.396;10.064;2023-02-26T01:18:21;-1.50;99.90
5394;DHT22;2720;52.396;10.064;2023-02-26T01:20:55;-1.40;99.90
5394;DHT22;2720;52.396;10.064;2023-02-26T01:23:26;-1.40;99.90
5394;DHT22;2720;52.396;10.064;2023-02-26T01:25:57;-1.40;99.90
5394;DHT22;2720;52.396;10.064;2023-02-26T01:28:25;-1.30;99.90
5394;DHT22;2720;52.396;10.064;2023-02-26T01:30:56;-1.30;99.90
5394;DHT22;2720;52.396;10.064;2023-02-26T01:33:28;-1.30;99.90
5394;DHT22;2720;52.396;10.064;2023-02-26T01:36:00;-1.20;99.90
5394;DHT22;2720;52.396;10.064;2023-02-26T01:38:37;-1.20;99.90
5394;DHT22;2720;52.396;10.064;2023-02-26T01:41:22;-1.20;99.90
5394;DHT22;2720;52.396;10.064;2023-02-26T01:43:59;-1.20;99.90
5394;DHT22;2720;52.396;10.064;2023-02-26T01:46:33;-1.20;99.90
5394;DHT22;2720;52.396;10.064;2023-02-26T01:49:03;-1.10;99.90
5394;DHT22;2720;52.396;10.064;2023-02-26T01:51:46;-1.20;99.90
5394;DHT22;2720;52.396;10.064;2023-02-26T01:54:18;-1.10;99.90
5394;DHT22;2720;52.396;10.064;2023-02-26T01:56:48;-1.10;99.90
5394;DHT22;2720;52.396;10.064;2023-02-26T01:59:17;-1.10;99.90
5394;DHT22;2720;52.396;10.064;2023-02-26T02:01:49;-1.10;99.90
5394;DHT22;2720;52.396;10.064;2023-02-26T02:04:17;-1.10;99.90
5394;DHT22;2720;52.396;10.064;2023-02-26T02:06:46;-1.20;99.90
5394;DHT22;2720;52.396;10.064;2023-02-26T02:09:15;-1.10;99.90
5394;DHT22;2720;52.396;10.064;2023-02-26T02:11:56;-1.10;99.90
5394;DHT22;2720;52.396;10.064;2023-02-26T02:14:33;-1.10;99.90
5394;DHT22;2720;52.396;10.064;2023-02-26T02:17:06;-1.10;99.90
5394;DHT22;2720;52.396;10.064;2023-02-26T02:20:01;-1.10;99.90
5394;DHT22;2720;52.396;10.064;2023-02-26T02:22:52;-1.10;99.90
5394;DHT22;2720;52.396;10.064;2023-02-26T02:25:56;-1.10;99.90
5394;DHT22;2720;52.396;10.064;2023-02-26T02:28:35;-1.20;99.90
5394;DHT22;2720;52.396;10.064;2023-02-26T02:31:07;-1.10;99.90
5394;DHT22;2720;52.396;10.064;2023-02-26T02:33:43;-1.20;99.90
5394;DHT22;2720;52.396;10.064;2023-02-26T02:36:16;-1.10;99.90
5394;DHT22;2720;52.396;10.064;2023-02-26T02:38:47;-1.10;99.90
5394;DHT22;2720;52.396;10.064;2023-02-26T02:41:19;-1.10;99.90
5394;DHT22;2720;52.396;10.064;2023-02-26T02:43:48;-1.00;99.90
5394;DHT22;2720;52.396;10.064;2023-02-26T02:46:20;-0.90;99.90
5394;DHT22;2720;52.396;10.064;2023-02-26T02:48:53;-0.90;99.90
5394;DHT22;2720;52.396;10.064;2023-02-26T02:51:25;-0.80;99.90
5394;DHT22;2720;52.396;10.064;2023-02-26T02:53:56;-0.90;99.90
5394;DHT22;2720;52.396;10.064;2023-02-26T02:56:28;-0.90;99.90
5394;DHT22;2720;52.396;10.064;2023-02-26T02:59:05;-0.90;99.90
5394;DHT22;2720;52.396;10.064;2023-02-26T03:01:38;-0.90;99.90
5394;DHT22;2720;52.396;10.064;2023-02-26T03:06:36;-0.90;99.90
5394;DHT22;2720;52.396;10.064;2023-02-26T03:09:05;-0.80;99.90
5394;DHT22;2720;52.396;10.064;2023-02-26T03:11:32;-0.90;99.90
5394;DHT22;2720;52.396;10.064;2023-02-26T03:13:59;-0.80;99.90
5394;DHT22;2720;52.396;10.064;2023-02-26T03:16:42;-0.90;99.90
5394;DHT22;2720;52.396;10.064;2023-02-26T03:19:19;-0.80;99.90
5394;DHT22;2720;52.396;10.064;2023-02-26T03:21:51;-0.80;99.90
5394;DHT22;2720;52.396;10.064;2023-02-26T03:24:27;-0.80;99.90
5394;DHT22;2720;52.396;10.064;2023-02-26T03:26:59;-0.80;99.90
5394;DHT22;2720;52.396;10.064;2023-02-26T03:29:34;-0.80;99.90
5394;DHT22;2720;52.396;10.064;2023-02-26T03:32:08;-0.80;99.90
5394;DHT22;2720;52.396;10.064;2023-02-26T03:34:40;-0.80;99.90
5394;DHT22;2720;52.396;10.064;2023-02-26T03:37:11;-0.70;99.90
5394;DHT22;2720;52.396;10.064;2023-02-26T03:42:15;-0.80;99.90
5394;DHT22;2720;52.396;10.064;2023-02-26T03:44:50;-0.80;99.90
5394;DHT22;2720;52.396;10.064;2023-02-26T03:47:20;-0.80;99.90
5394;DHT22;2720;52.396;10.064;2023-02-26T03:49:51;-0.80;99.90
5394;DHT22;2720;52.396;10.064;2023-02-26T03:52:22;-0.80;99.90
5394;DHT22;2720;52.396;10.064;2023-02-26T03:54:53;-0.80;99.90
5394;DHT22;2720;52.396;10.064;2023-02-26T03:57:21;-0.80;99.90
5394;DHT22;2720;52.396;10.064;2023-02-26T03:59:48;-0.80;99.90
5394;DHT22;2720;52.396;10.064;2023-02-26T04:02:17;-0.60;99.90
5394;DHT22;2720;52.396;10.064;2023-02-26T04:04:52;-0.90;99.90
5394;DHT22;2720;52.396;10.064;2023-02-26T04:07:21;-0.80;99.90
5394;DHT22;2720;52.396;10.064;2023-02-26T04:09:50;-0.90;99.90
5394;DHT22;2720;52.396;10.064;2023-02-26T04:12:20;-0.90;99.90
5394;DHT22;2720;52.396;10.064;2023-02-26T04:14:47;-0.80;99.90
5394;DHT22;2720;52.396;10.064;2023-02-26T04:17:14;-0.80;99.90
5394;DHT22;2720;52.396;10.064;2023-02-26T04:19:41;-0.80;99.90
5394;DHT22;2720;52.396;10.064;2023-02-26T04:22:10;-0.80;99.90
5394;DHT22;2720;52.396;10.064;2023-02-26T04:24:37;-0.80;99.90
5394;DHT22;2720;52.396;10.064;2023-02-26T04:27:04;-0.70;99.90
5394;DHT22;2720;52.396;10.064;2023-02-26T04:29:31;-0.80;99.90
5394;DHT22;2720;52.396;10.064;2023-02-26T04:31:58;-0.70;99.90
5394;DHT22;2720;52.396;10.064;2023-02-26T04:34:25;-0.70;99.90
5394;DHT22;2720;52.396;10.064;2023-02-26T04:36:52;-0.70;99.90
5394;DHT22;2720;52.396;10.064;2023-02-26T04:39:21;-0.70;99.90
5394;DHT22;2720;52.396;10.064;2023-02-26T04:41:47;-0.70;99.90
5394;DHT22;2720;52.396;10.064;2023-02-26T04:44:14;-0.70;99.90
5394;DHT22;2720;52.396;10.064;2023-02-26T04:46:41;-0.70;99.90
5394;DHT22;2720;52.396;10.064;2023-02-26T04:49:08;-0.70;99.90
5394;DHT22;2720;52.396;10.064;2023-02-26T04:51:35;-0.70;99.90
5394;DHT22;2720;52.396;10.064;2023-02-26T04:54:02;-0.70;99.90
5394;DHT22;2720;52.396;10.064;2023-02-26T04:56:31;-0.60;99.90
5394;DHT22;2720;52.396;10.064;2023-02-26T04:58:58;-0.70;99.90
5394;DHT22;2720;52.396;10.064;2023-02-26T05:01:25;-0.60;99.90
5394;DHT22;2720;52.396;10.064;2023-02-26T05:03:52;-0.70;99.90
5394;DHT22;2720;52.396;10.064;2023-02-26T05:06:19;-0.70;99.90
5394;DHT22;2720;52.396;10.064;2023-02-26T05:08:46;-0.60;99.90
5394;DHT22;2720;52.396;10.064;2023-02-26T05:11:13;-0.70;99.90
5394;DHT22;2720;52.396;10.064;2023-02-26T05:13:41;-0.70;99.90
5394;DHT22;2720;52.396;10.064;2023-02-26T05:16:08;-0.70;99.90
5394;DHT22;2720;52.396;10.064;2023-02-26T05:18:35;-0.70;99.90
5394;DHT22;2720;52.396;10.064;2023-02-26T05:21:03;-0.70;99.90
5394;DHT22;2720;52.396;10.064;2023-02-26T05:23:30;-0.70;99.90
5394;DHT22;2720;52.396;10.064;2023-02-26T05:25:57;-0.80;99.90
5394;DHT22;2720;52.396;10.064;2023-02-26T05:28:24;-0.80;99.90
5394;DHT22;2720;52.396;10.064;2023-02-26T05:30:55;-0.80;99.90
5394;DHT22;2720;52.396;10.064;2023-02-26T05:33:22;-0.90;99.90
5394;DHT22;2720;52.396;10.064;2023-02-26T05:35:49;-1.00;99.90
5394;DHT22;2720;52.396;10.064;2023-02-26T05:38:16;-1.10;99.90
5394;DHT22;2720;52.396;10.064;2023-02-26T05:40:43;-1.20;99.90
5394;DHT22;2720;52.396;10.064;2023-02-26T05:43:10;-1.20;99.90
5394;DHT22;2720;52.396;10.064;2023-02-26T05:45:37;-1.20;99.90
5394;DHT22;2720;52.396;10.064;2023-02-26T05:48:05;-1.10;99.90
5394;DHT22;2720;52.396;10.064;2023-02-26T05:50:32;-1.10;99.90
5394;DHT22;2720;52.396;10.064;2023-02-26T05:52:59;-1.10;99.90
5394;DHT22;2720;52.396;10.064;2023-02-26T05:55:26;-1.10;99.90
5394;DHT22;2720;52.396;10.064;2023-02-26T05:57:53;-1.10;99.90
5394;DHT22;2720;52.396;10.064;2023-02-26T06:00:20;-1.10;99.90
5394;DHT22;2720;52.396;10.064;2023-02-26T06:02:47;-1.10;99.90
5394;DHT22;2720;52.396;10.064;2023-02-26T06:05:16;-1.20;99.90
5394;DHT22;2720;52.396;10.064;2023-02-26T06:07:43;-1.20;99.90
5394;DHT22;2720;52.396;10.064;2023-02-26T06:10:11;-1.20;99.90
5394;DHT22;2720;52.396;10.064;2023-02-26T06:12:38;-1.20;99.90
5394;DHT22;2720;52.396;10.064;2023-02-26T06:15:06;-1.20;99.90
5394;DHT22;2720;52.396;10.064;2023-02-26T06:17:35;-1.20;99.90
5394;DHT22;2720;52.396;10.064;2023-02-26T06:20:02;-1.20;99.90
5394;DHT22;2720;52.396;10.064;2023-02-26T06:22:31;-1.30;99.90
5394;DHT22;2720;52.396;10.064;2023-02-26T06:24:58;-1.30;99.90
5394;DHT22;2720;52.396;10.064;2023-02-26T06:27:25;-1.20;99.90
5394;DHT22;2720;52.396;10.064;2023-02-26T06:29:52;-1.20;99.90
5394;DHT22;2720;52.396;10.064;2023-02-26T06:32:19;-1.20;99.90
5394;DHT22;2720;52.396;10.064;2023-02-26T06:34:46;-1.30;99.90
5394;DHT22;2720;52.396;10.064;2023-02-26T06:37:12;-1.30;99.90
5394;DHT22;2720;52.396;10.064;2023-02-26T06:39:41;-1.20;99.90
5394;DHT22;2720;52.396;10.064;2023-02-26T06:42:08;-1.20;99.90
5394;DHT22;2720;52.396;10.064;2023-02-26T06:44:35;-1.20;99.90
5394;DHT22;2720;52.396;10.064;2023-02-26T06:47:02;-1.20;99.90
5394;DHT22;2720;52.396;10.064;2023-02-26T06:49:29;-1.10;99.90
5394;DHT22;2720;52.396;10.064;2023-02-26T06:51:56;-1.00;99.90
5394;DHT22;2720;52.396;10.064;2023-02-26T06:54:23;-1.00;99.90
5394;DHT22;2720;52.396;10.064;2023-02-26T06:56:51;-0.90;99.90
5394;DHT22;2720;52.396;10.064;2023-02-26T06:59:22;-0.90;99.90
5394;DHT22;2720;52.396;10.064;2023-02-26T07:01:49;-0.80;99.90
5394;DHT22;2720;52.396;10.064;2023-02-26T07:04:16;-0.70;99.90
5394;DHT22;2720;52.396;10.064;2023-02-26T07:06:43;-0.50;99.90
5394;DHT22;2720;52.396;10.064;2023-02-26T07:09:10;-0.40;99.90
5394;DHT22;2720;52.396;10.064;2023-02-26T07:11:37;-0.20;99.90
5394;DHT22;2720;52.396;10.064;2023-02-26T07:14:05;-0.10;99.90
5394;DHT22;2720;52.396;10.064;2023-02-26T07:16:32;0.00;99.90
5394;DHT22;2720;52.396;10.064;2023-02-26T07:18:59;-0.10;99.90
5394;DHT22;2720;52.396;10.064;2023-02-26T07:21:26;0.00;99.90
5394;DHT22;2720;52.396;10.064;2023-02-26T07:23:53;0.10;99.90
5394;DHT22;2720;52.396;10.064;2023-02-26T07:26:20;0.10;99.90
5394;DHT22;2720;52.396;10.064;2023-02-26T07:28:47;-0.10;99.90
5394;DHT22;2720;52.396;10.064;2023-02-26T07:31:15;-0.10;99.90
5394;DHT22;2720;52.396;10.064;2023-02-26T07:33:42;-0.10;99.90
5394;DHT22;2720;52.396;10.064;2023-02-26T07:36:09;-0.30;99.90
5394;DHT22;2720;52.396;10.064;2023-02-26T07:38:36;-0.40;99.90
5394;DHT22;2720;52.396;10.064;2023-02-26T07:41:03;-0.50;99.90
5394;DHT22;2720;52.396;10.064;2023-02-26T07:43:30;-0.50;99.90
5394;DHT22;2720;52.396;10.064;2023-02-26T07:45:57;-0.40;99.90
5394;DHT22;2720;52.396;10.064;2023-02-26T07:48:26;-0.20;99.90
5394;DHT22;2720;52.396;10.064;2023-02-26T07:50:53;0.00;99.90
5394;DHT22;2720;52.396;10.064;2023-02-26T07:53:20;0.10;99.90
5394;DHT22;2720;52.396;10.064;2023-02-26T07:55:48;0.40;99.90
5394;DHT22;2720;52.396;10.064;2023-02-26T07:58:15;0.60;99.90
5394;DHT22;2720;52.396;10.064;2023-02-26T08:00:42;0.70;99.90
5394;DHT22;2720;52.396;10.064;2023-02-26T08:03:09;0.70;99.90
5394;DHT22;2720;52.396;10.064;2023-02-26T08:05:37;0.60;99.90
5394;DHT22;2720;52.396;10.064;2023-02-26T08:08:04;0.50;99.90
5394;DHT22;2720;52.396;10.064;2023-02-26T08:10:31;0.40;99.90
5394;DHT22;2720;52.396;10.064;2023-02-26T08:12:58;0.20;99.90
5394;DHT22;2720;52.396;10.064;2023-02-26T08:15:25;0.30;99.90
5394;DHT22;2720;52.396;10.064;2023-02-26T08:17:52;0.50;99.90
5394;DHT22;2720;52.396;10.064;2023-02-26T08:20:20;0.60;99.90
5394;DHT22;2720;52.396;10.064;2023-02-26T08:22:49;0.70;99.90
5394;DHT22;2720;52.396;10.064;2023-02-26T08:25:16;0.80;99.90
5394;DHT22;2720;52.396;10.064;2023-02-26T08:27:43;0.80;99.90
5394;DHT22;2720;52.396;10.064;2023-02-26T08:30:11;0.80;99.90
5394;DHT22;2720;52.396;10.064;2023-02-26T08:32:38;0.80;99.90
5394;DHT22;2720;52.396;10.064;2023-02-26T08:35:07;0.90;99.90
5394;DHT22;2720;52.396;10.064;2023-02-26T08:37:35;0.90;99.90
5394;DHT22;2720;52.396;10.064;2023-02-26T08:40:05;1.20;99.90
5394;DHT22;2720;52.396;10.064;2023-02-26T08:42:33;0.90;99.90
5394;DHT22;2720;52.396;10.064;2023-02-26T08:45:00;1.30;99.90
5394;DHT22;2720;52.396;10.064;2023-02-26T08:47:27;1.30;99.90
5394;DHT22;2720;52.396;10.064;2023-02-26T08:49:54;1.30;99.90
5394;DHT22;2720;52.396;10.064;2023-02-26T08:52:21;1.30;99.90
5394;DHT22;2720;52.396;10.064;2023-02-26T08:54:48;1.40;99.90
5394;DHT22;2720;52.396;10.064;2023-02-26T08:57:17;1.30;99.90
5394;DHT22;2720;52.396;10.064;2023-02-26T08:59:44;1.50;99.90
5394;DHT22;2720;52.396;10.064;2023-02-26T09:02:14;1.60;99.90
5394;DHT22;2720;52.396;10.064;2023-02-26T09:04:41;1.60;99.90
5394;DHT22;2720;52.396;10.064;2023-02-26T09:07:08;1.70;99.90
5394;DHT22;2720;52.396;10.064;2023-02-26T09:09:35;1.70;99.90
5394;DHT22;2720;52.396;10.064;2023-02-26T09:12:03;1.80;99.90
5394;DHT22;2720;52.396;10.064;2023-02-26T09:14:33;1.70;99.90
5394;DHT22;2720;52.396;10.064;2023-02-26T09:17:00;1.70;99.90
5394;DHT22;2720;52.396;10.064;2023-02-26T09:19:27;1.70;99.90
5394;DHT22;2720;52.396;10.064;2023-02-26T09:21:54;1.80;99.90
5394;DHT22;2720;52.396;10.064;2023-02-26T09:24:21;1.70;99.90
5394;DHT22;2720;52.396;10.064;2023-02-26T09:26:48;1.80;99.90
5394;DHT22;2720;52.396;10.064;2023-02-26T09:29:15;1.80;99.90
5394;DHT22;2720;52.396;10.064;2023-02-26T09:31:43;1.80;99.90
5394;DHT22;2720;52.396;10.064;2023-02-26T09:34:10;1.80;99.90
5394;DHT22;2720;52.396;10.064;2023-02-26T09:36:38;1.70;99.90
5394;DHT22;2720;52.396;10.064;2023-02-26T09:39:06;1.60;99.90
5394;DHT22;2720;52.396;10.064;2023-02-26T09:41:37;1.80;99.90
5394;DHT22;2720;52.396;10.064;2023-02-26T09:44:18;1.80;99.90
5394;DHT22;2720;52.396;10.064;2023-02-26T09:46:55;1.90;99.90
5394;DHT22;2720;52.396;10.064;2023-02-26T09:49:37;1.90;99.90
5394;DHT22;2720;52.396;10.064;2023-02-26T09:52:28;2.00;99.90
5394;DHT22;2720;52.396;10.064;2023-02-26T09:54:59;2.00;99.90
5394;DHT22;2720;52.396;10.064;2023-02-26T09:57:29;2.00;99.90
5394;DHT22;2720;52.396;10.064;2023-02-26T09:59:57;2.10;99.90
5394;DHT22;2720;52.396;10.064;2023-02-26T10:02:34;2.20;99.90
5394;DHT22;2720;52.396;10.064;2023-02-26T10:05:14;2.10;99.90
5394;DHT22;2720;52.396;10.064;2023-02-26T10:07:45;2.20;99.90
5394;DHT22;2720;52.396;10.064;2023-02-26T10:10:21;2.30;99.90
5394;DHT22;2720;52.396;10.064;2023-02-26T10:12:51;2.20;99.90
5394;DHT22;2720;52.396;10.064;2023-02-26T10:15:21;2.30;99.90
5394;DHT22;2720;52.396;10.064;2023-02-26T10:18:01;2.40;99.90
5394;DHT22;2720;52.396;10.064;2023-02-26T10:20:33;2.40;99.90
5394;DHT22;2720;52.396;10.064;2023-02-26T10:23:05;2.30;99.90
5394;DHT22;2720;52.396;10.064;2023-02-26T10:25:37;2.40;99.90
5394;DHT22;2720;52.396;10.064;2023-02-26T10:28:29;2.40;99.90
5394;DHT22;2720;52.396;10.064;2023-02-26T10:31:02;2.40;99.90
5394;DHT22;2720;52.396;10.064;2023-02-26T10:33:38;2.70;99.90
5394;DHT22;2720;52.396;10.064;2023-02-26T10:36:15;2.70;99.90
5394;DHT22;2720;52.396;10.064;2023-02-26T10:38:48;2.70;99.90
5394;DHT22;2720;52.396;10.064;2023-02-26T10:41:19;2.70;99.90
5394;DHT22;2720;52.396;10.064;2023-02-26T10:43:54;2.80;99.90
5394;DHT22;2720;52.396;10.064;2023-02-26T10:49:31;2.80;99.90
5394;DHT22;2720;52.396;10.064;2023-02-26T10:52:10;2.80;99.90
5394;DHT22;2720;52.396;10.064;2023-02-26T10:54:45;2.70;99.90
5394;DHT22;2720;52.396;10.064;2023-02-26T10:57:19;2.70;99.90
5394;DHT22;2720;52.396;10.064;2023-02-26T10:59:48;2.70;99.90
5394;DHT22;2720;52.396;10.064;2023-02-26T11:02:36;2.80;99.90
5394;DHT22;2720;52.396;10.064;2023-02-26T11:05:08;3.00;99.90
5394;DHT22;2720;52.396;10.064;2023-02-26T11:07:39;3.10;99.90
5394;DHT22;2720;52.396;10.064;2023-02-26T11:10:13;3.20;99.90
5394;DHT22;2720;52.396;10.064;2023-02-26T11:12:41;3.40;99.90
5394;DHT22;2720;52.396;10.064;2023-02-26T11:15:12;3.60;99.90
5394;DHT22;2720;52.396;10.064;2023-02-26T11:17:40;3.80;99.90
5394;DHT22;2720;52.396;10.064;2023-02-26T11:20:17;4.00;99.90
5394;DHT22;2720;52.396;10.064;2023-02-26T11:22:47;4.20;99.90
5394;DHT22;2720;52.396;10.064;2023-02-26T11:25:17;4.10;99.90
5394;DHT22;2720;52.396;10.064;2023-02-26T11:27:48;3.90;99.90
5394;DHT22;2720;52.396;10.064;2023-02-26T11:30:16;3.80;99.90
5394;DHT22;2720;52.396;10.064;2023-02-26T11:32:45;3.80;99.90
5394;DHT22;2720;52.396;10.064;2023-02-26T11:35:18;3.70;99.90
5394;DHT22;2720;52.396;10.064;2023-02-26T11:40:17;3.40;99.90
5394;DHT22;2720;52.396;10.064;2023-02-26T11:42:48;3.50;99.90
5394;DHT22;2720;52.396;10.064;2023-02-26T11:45:18;3.80;99.90
5394;DHT22;2720;52.396;10.064;2023-02-26T11:47:46;4.00;99.90
5394;DHT22;2720;52.396;10.064;2023-02-26T11:50:18;4.40;99.90
5394;DHT22;2720;52.396;10.064;2023-02-26T11:52:54;4.60;99.90
5394;DHT22;2720;52.396;10.064;2023-02-26T11:55:26;5.00;99.90
5394;DHT22;2720;52.396;10.064;2023-02-26T11:57:54;5.20;99.90
5394;DHT22;2720;52.396;10.064;2023-02-26T12:00:24;5.20;99.90
5394;DHT22;2720;52.396;10.064;2023-02-26T12:02:58;5.40;99.90
5394;DHT22;2720;52.396;10.064;2023-02-26T12:05:25;5.60;99.90
5394;DHT22;2720;52.396;10.064;2023-02-26T12:07:54;5.60;99.90
5394;DHT22;2720;52.396;10.064;2023-02-26T12:10:25;5.40;99.90
5394;DHT22;2720;52.396;10.064;2023-02-26T12:13:03;5.10;99.90
5394;DHT22;2720;52.396;10.064;2023-02-26T12:15:38;5.20;99.90
5394;DHT22;2720;52.396;10.064;2023-02-26T12:21:06;5.00;99.90
5394;DHT22;2720;52.396;10.064;2023-02-26T12:23:58;5.00;99.90
5394;DHT22;2720;52.396;10.064;2023-02-26T12:26:32;4.80;99.90
5394;DHT22;2720;52.396;10.064;2023-02-26T12:29:30;4.70;99.90
5394;DHT22;2720;52.396;10.064;2023-02-26T12:34:56;4.80;99.90
5394;DHT22;2720;52.396;10.064;2023-02-26T12:40:14;5.50;99.90
5394;DHT22;2720;52.396;10.064;2023-02-26T12:42:50;6.00;99.90
5394;DHT22;2720;52.396;10.064;2023-02-26T12:45:34;6.10;99.90
5394;DHT22;2720;52.396;10.064;2023-02-26T12:48:28;6.10;99.90
5394;DHT22;2720;52.396;10.064;2023-02-26T12:51:07;5.90;99.90
5394;DHT22;2720;52.396;10.064;2023-02-26T12:53:47;5.50;99.90
5394;DHT22;2720;52.396;10.064;2023-02-26T12:56:43;5.40;99.90
5394;DHT22;2720;52.396;10.064;2023-02-26T12:59:39;5.70;99.90
5394;DHT22;2720;52.396;10.064;2023-02-26T13:05:18;6.30;99.90
5394;DHT22;2720;52.396;10.064;2023-02-26T13:13:20;6.40;99.90
5394;DHT22;2720;52.396;10.064;2023-02-26T13:16:01;6.20;99.90
5394;DHT22;2720;52.396;10.064;2023-02-26T13:18:40;5.60;99.90
5394;DHT22;2720;52.396;10.064;2023-02-26T13:21:13;5.70;99.90
5394;DHT22;2720;52.396;10.064;2023-02-26T13:23:45;5.80;99.90
5394;DHT22;2720;52.396;10.064;2023-02-26T13:26:14;6.00;99.90
5394;DHT22;2720;52.396;10.064;2023-02-26T13:28:46;6.20;99.90
5394;DHT22;2720;52.396;10.064;2023-02-26T13:31:16;6.30;99.90
5394;DHT22;2720;52.396;10.064;2023-02-26T13:33:45;6.20;99.90
5394;DHT22;2720;52.396;10.064;2023-02-26T13:36:14;6.20;99.90
5394;DHT22;2720;52.396;10.064;2023-02-26T13:38:52;6.10;99.90
5394;DHT22;2720;52.396;10.064;2023-02-26T13:41:37;6.20;99.90
5394;DHT22;2720;52.396;10.064;2023-02-26T13:44:17;5.90;99.90
5394;DHT22;2720;52.396;10.064;2023-02-26T13:47:02;5.70;99.90
5394;DHT22;2720;52.396;10.064;2023-02-26T13:49:36;5.70;99.90
5394;DHT22;2720;52.396;10.064;2023-02-26T13:52:23;5.80;99.90
5394;DHT22;2720;52.396;10.064;2023-02-26T13:54:50;6.00;99.90
5394;DHT22;2720;52.396;10.064;2023-02-26T13:57:26;6.20;99.90
5394;DHT22;2720;52.396;10.064;2023-02-26T14:00:21;6.00;99.90
5394;DHT22;2720;52.396;10.064;2023-02-26T14:02:53;5.50;99.90
5394;DHT22;2720;52.396;10.064;2023-02-26T14:08:26;5.50;99.90
5394;DHT22;2720;52.396;10.064;2023-02-26T14:10:58;5.70;99.90
5394;DHT22;2720;52.396;10.064;2023-02-26T14:13:33;5.60;99.90
5394;DHT22;2720;52.396;10.064;2023-02-26T14:16:10;5.60;99.90
5394;DHT22;2720;52.396;10.064;2023-02-26T14:18:41;5.50;99.90
5394;DHT22;2720;52.396;10.064;2023-02-26T14:21:35;5.30;99.90
5394;DHT22;2720;52.396;10.064;2023-02-26T14:24:05;5.40;99.90
5394;DHT22;2720;52.396;10.064;2023-02-26T14:26:37;5.10;99.90
5394;DHT22;2720;52.396;10.064;2023-02-26T14:29:14;5.00;99.90
5394;DHT22;2720;52.396;10.064;2023-02-26T14:32:11;4.90;99.90
5394;DHT22;2720;52.396;10.064;2023-02-26T14:34:49;4.60;99.90
5394;DHT22;2720;52.396;10.064;2023-02-26T14:37:20;4.60;99.90
5394;DHT22;2720;52.396;10.064;2023-02-26T14:39:53;4.60;99.90
5394;DHT22;2720;52.396;10.064;2023-02-26T14:42:25;4.60;99.90
5394;DHT22;2720;52.396;10.064;2023-02-26T14:45:08;4.60;99.90
5394;DHT22;2720;52.396;10.064;2023-02-26T14:47:37;4.70;99.90
5394;DHT22;2720;52.396;10.064;2023-02-26T14:50:06;4.70;99.90
5394;DHT22;2720;52.396;10.064;2023-02-26T14:52:50;4.60;99.90
5394;DHT22;2720;52.396;10.064;2023-02-26T14:55:52;4.60;99.90
5394;DHT22;2720;52.396;10.064;2023-02-26T14:58:45;4.60;99.90
5394;DHT22;2720;52.396;10.064;2023-02-26T15:01:31;4.60;99.90
5394;DHT22;2720;52.396;10.064;2023-02-26T15:04:26;4.60;99.90
5394;DHT22;2720;52.396;10.064;2023-02-26T15:07:18;4.60;99.90
5394;DHT22;2720;52.396;10.064;2023-02-26T15:10:01;4.50;99.90
5394;DHT22;2720;52.396;10.064;2023-02-26T15:12:40;4.60;99.90
5394;DHT22;2720;52.396;10.064;2023-02-26T15:15:35;4.70;99.90
5394;DHT22;2720;52.396;10.064;2023-02-26T15:18:19;4.70;99.90
5394;DHT22;2720;52.396;10.064;2023-02-26T15:20:57;5.00;99.90
5394;DHT22;2720;52.396;10.064;2023-02-26T15:23:37;4.50;99.90
5394;DHT22;2720;52.396;10.064;2023-02-26T15:26:06;4.40;99.90
5394;DHT22;2720;52.396;10.064;2023-02-26T15:28:38;4.40;99.90
5394;DHT22;2720;52.396;10.064;2023-02-26T15:31:08;4.40;99.90
5394;DHT22;2720;52.396;10.064;2023-02-26T15:33:36;4.40;99.90
5394;DHT22;2720;52.396;10.064;2023-02-26T15:36:10;4.40;99.90
5394;DHT22;2720;52.396;10.064;2023-02-26T15:38:41;4.40;99.90
5394;DHT22;2720;52.396;10.064;2023-02-26T15:41:10;4.30;99.90
5394;DHT22;2720;52.396;10.064;2023-02-26T15:43:37;4.30;99.90
5394;DHT22;2720;52.396;10.064;2023-02-26T15:46:08;4.20;99.90
5394;DHT22;2720;52.396;10.064;2023-02-26T15:48:37;4.10;99.90
5394;DHT22;2720;52.396;10.064;2023-02-26T15:51:09;4.10;99.90
5394;DHT22;2720;52.396;10.064;2023-02-26T15:53:40;3.90;99.90
5394;DHT22;2720;52.396;10.064;2023-02-26T15:56:10;3.80;99.90
5394;DHT22;2720;52.396;10.064;2023-02-26T15:58:40;3.70;99.90
5394;DHT22;2720;52.396;10.064;2023-02-26T16:01:14;3.60;99.90
5394;DHT22;2720;52.396;10.064;2023-02-26T16:03:42;3.60;99.90
5394;DHT22;2720;52.396;10.064;2023-02-26T16:06:14;3.40;99.90
5394;DHT22;2720;52.396;10.064;2023-02-26T16:08:41;3.50;99.90
5394;DHT22;2720;52.396;10.064;2023-02-26T16:11:10;3.70;99.90
5394;DHT22;2720;52.396;10.064;2023-02-26T16:13:40;3.70;99.90
5394;DHT22;2720;52.396;10.064;2023-02-26T16:16:12;3.60;99.90
5394;DHT22;2720;52.396;10.064;2023-02-26T16:18:41;3.70;99.90
5394;DHT22;2720;52.396;10.064;2023-02-26T16:21:14;3.60;99.90
5394;DHT22;2720;52.396;10.064;2023-02-26T16:23:46;3.60;99.90
5394;DHT22;2720;52.396;10.064;2023-02-26T16:26:20;3.40;99.90
5394;DHT22;2720;52.396;10.064;2023-02-26T16:28:58;3.40;99.90
5394;DHT22;2720;52.396;10.064;2023-02-26T16:31:26;3.30;99.90
5394;DHT22;2720;52.396;10.064;2023-02-26T16:33:57;3.30;99.90
5394;DHT22;2720;52.396;10.064;2023-02-26T16:36:28;3.20;99.90
5394;DHT22;2720;52.396;10.064;2023-02-26T16:39:09;3.10;99.90
5394;DHT22;2720;52.396;10.064;2023-02-26T16:41:39;3.00;99.90
5394;DHT22;2720;52.396;10.064;2023-02-26T16:44:48;2.90;99.90
5394;DHT22;2720;52.396;10.064;2023-02-26T16:47:16;2.80;99.90
5394;DHT22;2720;52.396;10.064;2023-02-26T16:49:45;3.10;99.90
5394;DHT22;2720;52.396;10.064;2023-02-26T16:52:18;2.60;99.90
5394;DHT22;2720;52.396;10.064;2023-02-26T16:54:55;2.50;99.90